Nichiryu Maru — JG5632 — position and weather

sailwx.info

Track history (hours):
 
Tides and Currents Weather Stations Pressure Air Temp Water Temp Dewpoint Dewpoint Depression Visibility Wind Speed Wind Dir Waves Ship Positions

Nichiryu Maru

Last reported at 2015-Mar-02 10:32 UTC. Time now 2015-Mar-04 20:27 UTC.
Position N 35°07' E 139°43'.

Length 158 m; draft 6.5 m.

Type: Cargo ship. MMSI: 43100939.

Date/timePositionNaut miles runAvg speedWind from/ knotsBaromVisibWave heightAir tempDewpointWater temp
2015-Mar-02 10:32N 35°07' E 139°43'1211.9
2015-Mar-02 09:34N 35°19' E 139°42'2 2.4
2015-Mar-02 08:33N 35°19' E 139°39'0 0.0
2015-Mar-02 07:33N 35°19' E 139°39'0 0.0
2015-Mar-02 06:33N 35°19' E 139°39'0 0.0
2015-Mar-02 05:33N 35°19' E 139°39'0 0.0
2015-Mar-02 04:33N 35°19' E 139°39'0 0.0
2015-Mar-02 03:33N 35°19' E 139°39'0 0.0
2015-Mar-02 02:27N 35°19' E 139°39'0 0.0
2015-Mar-02 01:33N 35°19' E 139°39'0 0.0
2015-Mar-02 00:33N 35°19' E 139°39'0 0.0
2015-Mar-01 23:33N 35°19' E 139°39'5 5.2
2015-Mar-01 22:33N 35°17' E 139°45'1414.4
2015-Mar-01 21:33N 35°03' E 139°43'  
2015-Feb-27 08:33N 34°37' E 134°58'1514.5
2015-Feb-27 07:33N 34°40' E 135°15'2 1.8
2015-Feb-27 06:30N 34°41' E 135°13'0 0.0
2015-Feb-27 05:30N 34°41' E 135°13'0 0.0
2015-Feb-27 04:30N 34°41' E 135°13'5 5.1
2015-Feb-27 03:33N 34°36' E 135°16'1514.5
2015-Feb-27 02:33N 34°24' E 135°06'1515.1
2015-Feb-27 01:33N 34°10' E 134°59'23515.7
2015-Feb-26 10:33N 35°02' E 139°38'1615.6
2015-Feb-26 09:33N 35°16' E 139°45'6 5.7
2015-Feb-26 08:33N 35°19' E 139°39'0 0.0
2015-Feb-26 07:33N 35°19' E 139°39'0 0.0
2015-Feb-26 06:33N 35°19' E 139°39'0 0.0
2015-Feb-26 05:33N 35°19' E 139°39'0 0.0
2015-Feb-26 04:24N 35°19' E 139°39'3 4.1
2015-Feb-26 03:34N 35°18' E 139°43'1010.1
2015-Feb-26 02:34N 35°09' E 139°47'1817.5
2015-Feb-26 01:34N 34°54' E 139°36'  
2015-Feb-23 11:31N 35°06' E 139°41'1313.2
2015-Feb-23 10:33N 35°18' E 139°44'4 3.5
2015-Feb-23 09:25N 35°19' E 139°39'0 0.0
2015-Feb-23 08:16N 35°19' E 139°39'0 0.0
2015-Feb-23 07:20N 35°19' E 139°39'0 0.0
2015-Feb-23 06:23N 35°19' E 139°39'0 0.0
2015-Feb-23 05:23N 35°19' E 139°39'0 0.0
2015-Feb-23 04:22N 35°19' E 139°39'0 0.0
2015-Feb-23 03:32N 35°19' E 139°39'0 0.0
2015-Feb-23 02:29N 35°19' E 139°39'0 0.0
2015-Feb-23 01:31N 35°19' E 139°39'0 0.0
2015-Feb-23 00:28N 35°19' E 139°39'0 0.0
2015-Feb-22 23:32N 35°19' E 139°39'2 1.8
2015-Feb-22 22:30N 35°19' E 139°41'0 0.1
2015-Feb-22 21:33N 35°19' E 139°41'0 0.1
2015-Feb-22 20:32N 35°19' E 139°41'0 0.0
2015-Feb-22 19:31N 35°19' E 139°41'0 0.1
2015-Feb-22 18:33N 35°19' E 139°41'0 0.1
2015-Feb-22 17:33N 35°19' E 139°41'0 0.1
2015-Feb-22 16:33N 35°19' E 139°41'0 0.1
2015-Feb-22 15:33N 35°19' E 139°41'0 0.0
2015-Feb-22 14:32N 35°19' E 139°41'0 0.0
2015-Feb-22 13:33N 35°19' E 139°41'0 0.0
2015-Feb-22 12:33N 35°19' E 139°41'6 6.0
2015-Feb-22 11:33N 35°15' E 139°47'1917.6
2015-Feb-22 10:29N 34°58' E 139°37'  
Track history (hours):
 
Tides and Currents Weather Stations Pressure Air Temp Water Temp Dewpoint Dewpoint Depression Visibility Wind Speed Wind Dir Waves Ship Positions

Nichiryu Maru

Last reported at 2015-Mar-02 10:32 UTC. Time now 2015-Mar-04 20:27 UTC.
Position N 35°07' E 139°43'.

Length 158 m; draft 6.5 m.

Type: Cargo ship. MMSI: 43100939.

Date/timePositionNaut miles runAvg speedWind from/ knotsBaromVisibWave heightAir tempDewpointWater temp
2015-Mar-02 10:32N 35°07' E 139°43'1211.9
2015-Mar-02 09:34N 35°19' E 139°42'2 2.4
2015-Mar-02 08:33N 35°19' E 139°39'0 0.0
2015-Mar-02 07:33N 35°19' E 139°39'0 0.0
2015-Mar-02 06:33N 35°19' E 139°39'0 0.0
2015-Mar-02 05:33N 35°19' E 139°39'0 0.0
2015-Mar-02 04:33N 35°19' E 139°39'0 0.0
2015-Mar-02 03:33N 35°19' E 139°39'0 0.0
2015-Mar-02 02:27N 35°19' E 139°39'0 0.0
2015-Mar-02 01:33N 35°19' E 139°39'0 0.0
2015-Mar-02 00:33N 35°19' E 139°39'0 0.0
2015-Mar-01 23:33N 35°19' E 139°39'5 5.2
2015-Mar-01 22:33N 35°17' E 139°45'1414.4
2015-Mar-01 21:33N 35°03' E 139°43'  
2015-Feb-27 08:33N 34°37' E 134°58'1514.5
2015-Feb-27 07:33N 34°40' E 135°15'2 1.8
2015-Feb-27 06:30N 34°41' E 135°13'0 0.0
2015-Feb-27 05:30N 34°41' E 135°13'0 0.0
2015-Feb-27 04:30N 34°41' E 135°13'5 5.1
2015-Feb-27 03:33N 34°36' E 135°16'1514.5
2015-Feb-27 02:33N 34°24' E 135°06'1515.1
2015-Feb-27 01:33N 34°10' E 134°59'23515.7
2015-Feb-26 10:33N 35°02' E 139°38'1615.6
2015-Feb-26 09:33N 35°16' E 139°45'6 5.7
2015-Feb-26 08:33N 35°19' E 139°39'0 0.0
2015-Feb-26 07:33N 35°19' E 139°39'0 0.0
2015-Feb-26 06:33N 35°19' E 139°39'0 0.0
2015-Feb-26 05:33N 35°19' E 139°39'0 0.0
2015-Feb-26 04:24N 35°19' E 139°39'3 4.1
2015-Feb-26 03:34N 35°18' E 139°43'1010.1
2015-Feb-26 02:34N 35°09' E 139°47'1817.5
2015-Feb-26 01:34N 34°54' E 139°36'  
2015-Feb-23 11:31N 35°06' E 139°41'1313.2
2015-Feb-23 10:33N 35°18' E 139°44'4 3.5
2015-Feb-23 09:25N 35°19' E 139°39'0 0.0
2015-Feb-23 08:16N 35°19' E 139°39'0 0.0
2015-Feb-23 07:20N 35°19' E 139°39'0 0.0
2015-Feb-23 06:23N 35°19' E 139°39'0 0.0
2015-Feb-23 05:23N 35°19' E 139°39'0 0.0
2015-Feb-23 04:22N 35°19' E 139°39'0 0.0
2015-Feb-23 03:32N 35°19' E 139°39'0 0.0
2015-Feb-23 02:29N 35°19' E 139°39'0 0.0
2015-Feb-23 01:31N 35°19' E 139°39'0 0.0
2015-Feb-23 00:28N 35°19' E 139°39'0 0.0
2015-Feb-22 23:32N 35°19' E 139°39'2 1.8
2015-Feb-22 22:30N 35°19' E 139°41'0 0.1
2015-Feb-22 21:33N 35°19' E 139°41'0 0.1
2015-Feb-22 20:32N 35°19' E 139°41'0 0.0
2015-Feb-22 19:31N 35°19' E 139°41'0 0.1
2015-Feb-22 18:33N 35°19' E 139°41'0 0.1
2015-Feb-22 17:33N 35°19' E 139°41'0 0.1
2015-Feb-22 16:33N 35°19' E 139°41'0 0.1
2015-Feb-22 15:33N 35°19' E 139°41'0 0.0
2015-Feb-22 14:32N 35°19' E 139°41'0 0.0
2015-Feb-22 13:33N 35°19' E 139°41'0 0.0
2015-Feb-22 12:33N 35°19' E 139°41'6 6.0
2015-Feb-22 11:33N 35°15' E 139°47'1917.6
2015-Feb-22 10:29N 34°58' E 139°37'  

Dump ship's entire track history